createdAt,value
2023-05-06T00:00:24.428Z,12.60
2023-05-06T00:03:22.433Z,12.54
2023-05-06T00:06:19.989Z,12.50
2023-05-06T00:09:17.930Z,12.50
2023-05-06T00:12:15.396Z,12.50
2023-05-06T00:15:13.281Z,12.50
2023-05-06T00:18:11.124Z,12.50
2023-05-06T00:21:08.555Z,12.40
2023-05-06T00:24:06.465Z,12.40
2023-05-06T00:27:04.344Z,12.40
2023-05-06T00:30:02.244Z,12.40
2023-05-06T00:32:59.731Z,12.30
2023-05-06T00:35:57.595Z,12.30
2023-05-06T00:38:55.258Z,12.30
2023-05-06T00:41:53.177Z,12.40
2023-05-06T00:44:50.642Z,12.50
2023-05-06T00:47:48.633Z,12.66
2023-05-06T00:50:46.626Z,12.78
2023-05-06T00:53:43.986Z,12.90
2023-05-06T00:56:41.731Z,12.90
2023-05-06T00:59:39.801Z,13.00
2023-05-06T01:02:46.256Z,13.10
2023-05-06T01:05:46.200Z,13.20
2023-05-06T01:08:44.342Z,13.30
2023-05-06T01:11:42.240Z,13.50
2023-05-06T01:14:39.689Z,13.60
2023-05-06T01:17:37.579Z,13.80
2023-05-06T01:20:35.039Z,13.98
2023-05-06T01:23:32.874Z,14.08
2023-05-06T01:26:30.274Z,14.12
2023-05-06T01:29:31.224Z,14.20
2023-05-06T01:32:29.065Z,14.30
2023-05-06T01:35:26.537Z,14.50
2023-05-06T01:38:24.573Z,14.60
2023-05-06T01:41:22.445Z,14.70
2023-05-06T01:44:19.884Z,14.78
2023-05-06T01:47:17.677Z,14.90
2023-05-06T01:50:15.190Z,14.92
2023-05-06T01:53:13.105Z,15.00
2023-05-06T01:56:10.555Z,15.10
2023-05-06T01:59:08.333Z,15.14
2023-05-06T02:02:07.554Z,15.20
2023-05-06T02:05:05.096Z,15.20
2023-05-06T02:08:02.970Z,15.30
2023-05-06T02:11:00.440Z,15.30
2023-05-06T02:13:58.779Z,15.30
2023-05-06T02:16:56.434Z,15.38
2023-05-06T02:19:54.430Z,15.40
2023-05-06T02:22:51.857Z,15.40
2023-05-06T02:25:50.691Z,15.40
2023-05-06T02:28:48.133Z,15.42
2023-05-06T02:31:46.152Z,15.50
2023-05-06T02:34:43.600Z,15.50
2023-05-06T02:37:41.451Z,15.50
2023-05-06T02:40:38.899Z,15.50
2023-05-06T02:43:36.798Z,15.60
2023-05-06T02:46:34.243Z,15.60
2023-05-06T02:49:32.214Z,15.60
2023-05-06T02:52:29.600Z,15.60
2023-05-06T02:55:27.442Z,15.60
2023-05-06T02:58:26.310Z,15.60
2023-05-06T03:01:24.771Z,15.60
2023-05-06T03:04:22.987Z,15.60
2023-05-06T03:07:20.548Z,15.58
2023-05-06T03:10:18.530Z,15.58
2023-05-06T03:13:16.143Z,15.56
2023-05-06T03:16:14.711Z,15.50
2023-05-06T03:19:12.601Z,15.50
2023-05-06T03:22:10.494Z,15.50
2023-05-06T03:25:08.369Z,15.50
2023-05-06T03:28:06.557Z,15.50
2023-05-06T03:31:04.450Z,15.50
2023-05-06T03:34:01.892Z,15.48
2023-05-06T03:36:59.787Z,15.40
2023-05-06T03:39:57.165Z,15.40
2023-05-06T03:42:55.166Z,15.40
2023-05-06T03:45:52.658Z,15.40
2023-05-06T03:48:50.635Z,15.40
2023-05-06T03:51:48.029Z,15.40
2023-05-06T03:54:45.861Z,15.40
2023-05-06T03:57:43.351Z,15.36
2023-05-06T04:00:41.181Z,15.30
2023-05-06T04:03:39.132Z,15.30
2023-05-06T04:06:36.794Z,15.30
2023-05-06T04:09:34.576Z,15.30
2023-05-06T04:12:31.976Z,15.30
2023-05-06T04:15:32.690Z,15.30
2023-05-06T04:18:30.676Z,15.30
2023-05-06T04:21:30.036Z,15.30
2023-05-06T04:24:28.556Z,15.30
2023-05-06T04:27:28.269Z,15.30
2023-05-06T04:30:26.234Z,15.30
2023-05-06T04:33:24.321Z,15.30
2023-05-06T04:36:22.047Z,15.30
2023-05-06T04:39:19.930Z,15.30
2023-05-06T04:42:17.537Z,15.30
2023-05-06T04:45:15.373Z,15.30
2023-05-06T04:48:13.109Z,15.30
2023-05-06T04:51:10.610Z,15.30
2023-05-06T04:54:08.477Z,15.22
2023-05-06T04:57:06.340Z,15.20
2023-05-06T05:00:03.768Z,15.20
2023-05-06T05:03:02.213Z,15.20
2023-05-06T05:06:00.296Z,15.20
2023-05-06T05:08:58.712Z,15.10
2023-05-06T05:11:57.564Z,15.10
2023-05-06T05:14:54.984Z,15.10
2023-05-06T05:17:52.990Z,15.10
2023-05-06T05:20:50.485Z,15.10
2023-05-06T05:23:48.316Z,15.10
2023-05-06T05:26:46.070Z,15.10
2023-05-06T05:29:43.934Z,15.10
2023-05-06T05:32:41.849Z,15.10
2023-05-06T05:35:39.239Z,15.12
2023-05-06T05:38:37.094Z,15.20
2023-05-06T05:41:35.525Z,15.20
2023-05-06T05:44:34.933Z,15.20
2023-05-06T05:47:32.389Z,15.20
2023-05-06T05:50:30.128Z,15.20
2023-05-06T05:53:27.561Z,15.20
2023-05-06T05:56:25.144Z,15.20
2023-05-06T05:59:22.499Z,15.20
2023-05-06T06:02:20.221Z,15.30
2023-05-06T06:05:17.986Z,15.40
2023-05-06T06:08:15.428Z,15.46
2023-05-06T06:11:13.077Z,15.58
2023-05-06T06:14:10.509Z,15.70
2023-05-06T06:17:08.175Z,15.80
2023-05-06T06:20:06.296Z,15.92
2023-05-06T06:23:05.681Z,16.10
2023-05-06T06:26:03.450Z,16.20
2023-05-06T06:29:00.838Z,16.40
2023-05-06T06:31:58.645Z,16.56
2023-05-06T06:34:56.113Z,16.70
2023-05-06T06:37:53.929Z,16.90
2023-05-06T06:40:51.325Z,17.10
2023-05-06T06:43:49.255Z,17.20
2023-05-06T06:46:46.997Z,17.34
2023-05-06T06:49:44.376Z,17.44
2023-05-06T06:52:42.140Z,17.60
2023-05-06T06:55:39.508Z,17.70
2023-05-06T06:58:37.131Z,17.80
2023-05-06T07:01:34.615Z,17.80
2023-05-06T07:04:32.428Z,17.90
2023-05-06T07:07:30.241Z,18.10
2023-05-06T07:10:27.699Z,18.20
2023-05-06T07:13:25.425Z,18.30
2023-05-06T07:16:23.244Z,18.40
2023-05-06T07:19:20.996Z,18.50
2023-05-06T07:22:18.704Z,18.70
2023-05-06T07:25:16.531Z,18.80
2023-05-06T07:28:13.949Z,18.90
2023-05-06T07:31:11.708Z,19.00
2023-05-06T07:34:09.450Z,19.10
2023-05-06T07:37:08.045Z,19.20
2023-05-06T07:40:06.721Z,19.38
2023-05-06T07:43:04.436Z,19.76
2023-05-06T07:46:05.311Z,20.10
2023-05-06T07:49:02.702Z,20.50
2023-05-06T07:52:00.357Z,20.80
2023-05-06T07:54:57.990Z,21.18
2023-05-06T07:57:55.391Z,21.54
2023-05-06T08:00:53.029Z,22.04
2023-05-06T08:03:50.564Z,22.60
2023-05-06T08:06:48.431Z,22.90
2023-05-06T08:09:45.840Z,23.22
2023-05-06T08:12:43.607Z,23.60
2023-05-06T08:15:41.476Z,23.70
2023-05-06T08:18:38.915Z,23.62
2023-05-06T08:21:37.329Z,23.70
2023-05-06T08:24:34.747Z,23.80
2023-05-06T08:27:33.325Z,23.80
2023-05-06T08:30:30.771Z,23.84
2023-05-06T08:33:28.381Z,23.80
2023-05-06T08:36:25.861Z,23.80
2023-05-06T08:39:24.117Z,23.70
2023-05-06T08:42:21.884Z,23.72
2023-05-06T08:45:19.305Z,23.70
2023-05-06T08:48:17.102Z,23.74
2023-05-06T08:51:14.508Z,23.80
2023-05-06T08:54:12.034Z,23.80
2023-05-06T08:57:10.979Z,23.58
2023-05-06T09:00:11.351Z,23.40
2023-05-06T09:03:09.168Z,23.16
2023-05-06T09:06:06.638Z,22.90
2023-05-06T09:09:04.445Z,22.70
2023-05-06T09:12:02.546Z,22.58
2023-05-06T09:15:00.475Z,22.48
2023-05-06T09:17:58.162Z,22.50
2023-05-06T09:20:55.662Z,22.80
2023-05-06T09:23:53.383Z,22.96
2023-05-06T09:26:50.857Z,23.20
2023-05-06T09:29:48.484Z,23.50
2023-05-06T09:32:49.849Z,23.60
2023-05-06T09:35:48.041Z,23.70
2023-05-06T09:38:45.923Z,23.60
2023-05-06T09:41:43.548Z,23.50
2023-05-06T09:44:41.230Z,23.30
2023-05-06T09:47:38.653Z,23.10
2023-05-06T09:50:36.398Z,23.10
2023-05-06T09:53:33.839Z,23.18
2023-05-06T09:56:31.545Z,23.20
2023-05-06T09:59:29.381Z,23.20
2023-05-06T10:02:27.252Z,23.30
2023-05-06T10:05:24.916Z,23.30
2023-05-06T10:08:23.175Z,23.42
2023-05-06T10:11:20.627Z,23.70
2023-05-06T10:14:18.210Z,24.16
2023-05-06T10:17:16.545Z,24.74
2023-05-06T10:20:13.995Z,25.22
2023-05-06T10:23:12.394Z,25.94
2023-05-06T10:26:09.829Z,26.30
2023-05-06T10:29:07.394Z,26.40
2023-05-06T10:32:05.050Z,26.32
2023-05-06T10:35:03.084Z,26.20
2023-05-06T10:38:00.834Z,26.10
2023-05-06T10:40:58.218Z,26.20
2023-05-06T10:43:57.835Z,26.58
2023-05-06T10:46:55.266Z,27.16
2023-05-06T10:49:52.919Z,27.62
2023-05-06T10:52:50.478Z,28.00
2023-05-06T10:55:48.132Z,28.40
2023-05-06T10:58:46.007Z,28.60
2023-05-06T11:01:43.425Z,29.00
2023-05-06T11:04:41.061Z,29.30
2023-05-06T11:07:38.444Z,29.30
2023-05-06T11:10:36.555Z,29.10
2023-05-06T11:13:34.144Z,29.10
2023-05-06T11:16:31.793Z,29.00
2023-05-06T11:19:30.391Z,29.10
2023-05-06T11:22:27.811Z,29.20
2023-05-06T11:25:25.505Z,29.40
2023-05-06T11:28:22.949Z,29.40
2023-05-06T11:31:20.748Z,29.20
2023-05-06T11:34:18.307Z,29.00
2023-05-06T11:37:15.744Z,28.90
2023-05-06T11:40:13.409Z,28.70
2023-05-06T11:43:10.888Z,28.80
2023-05-06T11:46:08.669Z,29.20
2023-05-06T11:49:06.530Z,29.30
2023-05-06T11:52:03.923Z,29.40
2023-05-06T11:55:01.655Z,29.42
2023-05-06T11:57:59.050Z,29.08
2023-05-06T12:00:56.683Z,29.02
2023-05-06T12:03:54.278Z,28.90
2023-05-06T12:06:51.941Z,28.94
2023-05-06T12:09:49.337Z,29.30
2023-05-06T12:12:46.994Z,29.70
2023-05-06T12:15:44.640Z,30.12
2023-05-06T12:18:42.078Z,30.40
2023-05-06T12:21:39.820Z,30.30
2023-05-06T12:24:38.405Z,30.10
2023-05-06T12:27:35.964Z,30.40
2023-05-06T12:30:34.659Z,30.60
2023-05-06T12:33:32.138Z,30.70
2023-05-06T12:36:29.864Z,30.90
2023-05-06T12:39:27.274Z,30.90
2023-05-06T12:42:24.921Z,31.02
2023-05-06T12:45:22.338Z,31.40
2023-05-06T12:48:19.929Z,31.28
2023-05-06T12:51:17.709Z,30.80
2023-05-06T12:54:15.158Z,30.16
2023-05-06T12:57:12.831Z,29.72
2023-05-06T13:00:10.879Z,29.90
2023-05-06T13:03:09.045Z,29.64
2023-05-06T13:06:06.549Z,29.70
2023-05-06T13:09:05.144Z,29.90
2023-05-06T13:12:02.570Z,30.00
2023-05-06T13:15:00.341Z,29.60
2023-05-06T13:17:57.804Z,29.78
2023-05-06T13:20:55.566Z,29.90
2023-05-06T13:23:53.372Z,29.66
2023-05-06T13:26:50.834Z,29.38
2023-05-06T13:29:48.452Z,28.98
2023-05-06T13:32:45.991Z,28.60
2023-05-06T13:35:43.681Z,28.30
2023-05-06T13:38:41.155Z,28.44
2023-05-06T13:41:38.828Z,28.66
2023-05-06T13:44:36.892Z,28.60
2023-05-06T13:47:34.299Z,28.60
2023-05-06T13:50:31.997Z,28.60
2023-05-06T13:53:29.555Z,28.50
2023-05-06T13:56:27.249Z,28.30
2023-05-06T13:59:24.632Z,27.96
2023-05-06T14:02:24.207Z,27.64
2023-05-06T14:05:22.226Z,27.00
2023-05-06T14:08:19.965Z,26.60
2023-05-06T14:11:18.381Z,26.34
2023-05-06T14:14:16.024Z,26.04
2023-05-06T14:17:13.632Z,25.60
2023-05-06T14:20:11.091Z,25.20
2023-05-06T14:23:09.398Z,25.20
2023-05-06T14:26:06.789Z,25.54
2023-05-06T14:29:04.446Z,25.60
2023-05-06T14:32:02.152Z,25.50
2023-05-06T14:34:59.689Z,25.40
2023-05-06T14:37:57.423Z,25.50
2023-05-06T14:40:54.806Z,25.50
2023-05-06T14:43:52.427Z,25.60
2023-05-06T14:46:49.818Z,25.70
2023-05-06T14:49:47.513Z,25.80
2023-05-06T14:52:44.912Z,25.80
2023-05-06T14:55:42.526Z,25.80
2023-05-06T14:58:40.660Z,25.60
2023-05-06T15:01:38.127Z,25.40
2023-05-06T15:04:36.020Z,25.28
2023-05-06T15:07:33.399Z,25.10
2023-05-06T15:10:31.108Z,25.10
2023-05-06T15:13:28.546Z,25.10
2023-05-06T15:16:26.329Z,25.10
2023-05-06T15:19:24.006Z,25.20
2023-05-06T15:22:21.454Z,25.20
2023-05-06T15:25:33.354Z,25.10
2023-05-06T15:28:32.165Z,25.00
2023-05-06T15:31:29.948Z,24.80
2023-05-06T15:34:27.420Z,24.80
2023-05-06T15:37:25.040Z,24.70
2023-05-06T15:40:25.616Z,24.60
2023-05-06T15:43:24.353Z,24.50
2023-05-06T15:46:22.881Z,24.30
2023-05-06T15:49:47.309Z,24.10
2023-05-06T15:52:38.019Z,24.06
2023-05-06T15:55:45.198Z,24.00
2023-05-06T15:58:49.278Z,24.00
2023-05-06T16:04:47.875Z,23.90
2023-05-06T16:07:46.032Z,23.80
2023-05-06T16:10:43.479Z,23.70
2023-05-06T16:13:43.698Z,23.60
2023-05-06T16:16:41.153Z,23.50
2023-05-06T16:19:39.432Z,23.40
2023-05-06T16:22:39.208Z,23.30
2023-05-06T16:25:38.414Z,23.20
2023-05-06T16:28:37.377Z,23.10
2023-05-06T16:31:36.153Z,22.90
2023-05-06T16:34:33.920Z,22.90
2023-05-06T16:37:31.355Z,22.70
2023-05-06T16:40:30.291Z,22.60
2023-05-06T16:43:27.743Z,22.50
2023-05-06T16:46:26.477Z,22.32
2023-05-06T16:49:27.999Z,22.22
2023-05-06T16:52:25.500Z,22.00
2023-05-06T16:55:23.210Z,21.70
2023-05-06T16:58:20.614Z,21.58
2023-05-06T17:01:18.366Z,21.40
2023-05-06T17:04:16.126Z,21.20
2023-05-06T17:07:13.878Z,21.10
2023-05-06T17:10:12.542Z,21.00
2023-05-06T17:13:10.203Z,20.80
2023-05-06T17:16:07.935Z,20.60
2023-05-06T17:19:05.381Z,20.40
2023-05-06T17:22:03.422Z,20.20
2023-05-06T17:25:01.208Z,20.00
2023-05-06T17:27:58.959Z,19.80
2023-05-06T17:30:56.621Z,19.60
2023-05-06T17:33:54.048Z,19.40
2023-05-06T17:36:52.506Z,19.28
2023-05-06T17:39:49.975Z,19.10
2023-05-06T17:42:48.096Z,19.00
2023-05-06T17:45:46.178Z,18.90
2023-05-06T17:48:44.150Z,18.70
2023-05-06T17:51:46.217Z,18.60
2023-05-06T17:54:43.671Z,18.48
2023-05-06T17:57:41.439Z,18.30
2023-05-06T18:00:38.987Z,18.10
2023-05-06T18:03:36.816Z,18.00
2023-05-06T18:06:34.385Z,17.90
2023-05-06T18:09:32.823Z,17.80
2023-05-06T18:12:30.194Z,17.68
2023-05-06T18:15:27.930Z,17.60
2023-05-06T18:18:25.643Z,17.50
2023-05-06T18:21:23.215Z,17.38
2023-05-06T18:24:21.970Z,17.30
2023-05-06T18:27:19.345Z,17.20
2023-05-06T18:30:17.283Z,17.10
2023-05-06T18:33:14.722Z,17.00
2023-05-06T18:36:13.447Z,16.96
2023-05-06T18:39:11.189Z,16.90
2023-05-06T18:42:08.643Z,16.80
2023-05-06T18:45:07.444Z,16.80
2023-05-06T18:48:05.028Z,16.70
2023-05-06T18:51:02.658Z,16.70
2023-05-06T18:54:00.159Z,16.60
2023-05-06T18:56:58.863Z,16.58
2023-05-06T18:59:56.430Z,16.50
2023-05-06T19:02:53.965Z,16.48
2023-05-06T19:05:52.852Z,16.44
2023-05-06T19:08:50.285Z,16.40
2023-05-06T19:11:47.959Z,16.30
2023-05-06T19:14:45.402Z,16.30
2023-05-06T19:17:43.185Z,16.20
2023-05-06T19:20:40.648Z,16.10
2023-05-06T19:23:38.373Z,16.10
2023-05-06T19:26:36.418Z,16.00
2023-05-06T19:29:33.827Z,16.00
2023-05-06T19:32:32.290Z,15.90
2023-05-06T19:35:29.688Z,15.80
2023-05-06T19:38:27.479Z,15.80
2023-05-06T19:41:24.921Z,15.78
2023-05-06T19:44:22.615Z,15.70
2023-05-06T19:47:20.330Z,15.62
2023-05-06T19:50:17.772Z,15.60
2023-05-06T19:53:15.482Z,15.60
2023-05-06T19:56:12.895Z,15.60
2023-05-06T19:59:10.504Z,15.60
2023-05-06T20:02:10.520Z,15.60
2023-05-06T20:05:08.423Z,15.60
2023-05-06T20:08:10.958Z,15.60
2023-05-06T20:11:08.714Z,15.54
2023-05-06T20:14:06.350Z,15.50
2023-05-06T20:17:04.068Z,15.46
2023-05-06T20:20:09.674Z,15.40
2023-05-06T20:23:07.674Z,15.38
2023-05-06T20:26:05.375Z,15.30
2023-05-06T20:29:02.756Z,15.20
2023-05-06T20:32:00.553Z,15.20
2023-05-06T20:34:58.297Z,15.20
2023-05-06T20:37:56.118Z,15.10
2023-05-06T20:40:53.771Z,15.10
2023-05-06T20:43:52.856Z,15.10
2023-05-06T20:46:50.546Z,15.06
2023-05-06T20:49:47.983Z,15.00
2023-05-06T20:52:46.162Z,15.00
2023-05-06T20:55:43.899Z,14.90
2023-05-06T20:58:41.352Z,14.90
2023-05-06T21:01:39.296Z,14.80
2023-05-06T21:04:36.760Z,14.80
2023-05-06T21:07:34.817Z,14.76
2023-05-06T21:10:32.251Z,14.70
2023-05-06T21:13:29.876Z,14.70
2023-05-06T21:16:27.333Z,14.70
2023-05-06T21:19:24.949Z,14.70
2023-05-06T21:22:22.819Z,14.70
2023-05-06T21:25:20.197Z,14.70
2023-05-06T21:28:17.796Z,14.70
2023-05-06T21:31:15.193Z,14.70
2023-05-06T21:34:12.775Z,14.70
2023-05-06T21:37:10.142Z,14.70
2023-05-06T21:40:07.697Z,14.60
2023-05-06T21:43:05.808Z,14.60
2023-05-06T21:46:04.064Z,14.60
2023-05-06T21:49:01.553Z,14.60
2023-05-06T21:51:59.280Z,14.60
2023-05-06T21:54:57.446Z,14.60
2023-05-06T21:57:54.822Z,14.54
2023-05-06T22:00:52.698Z,14.50
2023-05-06T22:03:50.261Z,14.50
2023-05-06T22:06:48.103Z,14.40
2023-05-06T22:09:45.537Z,14.40
2023-05-06T22:12:43.319Z,14.32
2023-05-06T22:15:41.301Z,14.30
2023-05-06T22:18:41.768Z,14.20
2023-05-06T22:21:41.991Z,14.20
2023-05-06T22:24:39.682Z,14.14
2023-05-06T22:27:37.931Z,14.10
2023-05-06T22:30:35.316Z,14.08
2023-05-06T22:33:32.910Z,14.00
2023-05-06T22:36:31.851Z,13.98
2023-05-06T22:39:29.966Z,13.90
2023-05-06T22:42:27.518Z,13.86
2023-05-06T22:45:25.161Z,13.80
2023-05-06T22:48:22.858Z,13.80
2023-05-06T22:51:21.225Z,13.76
2023-05-06T22:54:18.828Z,13.70
2023-05-06T22:57:16.477Z,13.68
2023-05-06T23:00:14.136Z,13.60
2023-05-06T23:03:11.995Z,13.60
2023-05-06T23:06:09.370Z,13.50
2023-05-06T23:09:07.026Z,13.50
2023-05-06T23:12:04.416Z,13.50
2023-05-06T23:15:02.024Z,13.50
2023-05-06T23:17:59.474Z,13.40
2023-05-06T23:20:57.113Z,13.40
2023-05-06T23:23:54.754Z,13.30
2023-05-06T23:26:52.265Z,13.30
2023-05-06T23:29:49.993Z,13.20
2023-05-06T23:32:47.409Z,13.20
2023-05-06T23:35:45.080Z,13.10
2023-05-06T23:38:42.462Z,13.10
2023-05-06T23:41:40.057Z,13.00
2023-05-06T23:44:37.469Z,12.98
2023-05-06T23:47:35.177Z,12.90
2023-05-06T23:50:32.996Z,12.90
2023-05-06T23:53:30.477Z,12.80
2023-05-06T23:56:28.143Z,12.80
2023-05-06T23:59:25.593Z,12.76
